Observation data for Ralls on 08/11/2019      Previous  Date       Current Mesonet Observations  Soil Data  Daily Summary Page  Observations in Plain Language
KRLS 110500Z 13008KT 29/14 A3001 RMK A01 T02890136  RH  041%=      5-min Rain = 0
KRLS 110505Z 13009KT 29/14 A3001 RMK A01 T02890136  RH  041%=      5-min Rain = 0
KRLS 110510Z 13008KT 29/14 A3001 RMK A01 T02880136  RH  041%=      5-min Rain = 0
KRLS 110515Z 13008KT 29/14 A3001 RMK A01 T02880136  RH  041%=      5-min Rain = 0
KRLS 110520Z 13008KT 29/14 A3001 RMK A01 T02870136  RH  041%=      5-min Rain = 0
KRLS 110525Z 14008KT 29/14 A3002 RMK A01 T02860136  RH  041%=      5-min Rain = 0
KRLS 110530Z 14007KT 29/14 A3002 RMK A01 T02850136  RH  042%=      5-min Rain = 0
KRLS 110535Z 13007KT 28/14 A3002 RMK A01 T02830136  RH  042%=      5-min Rain = 0
KRLS 110540Z 13007KT 28/14 A3002 RMK A01 T02810136  RH  043%=      5-min Rain = 0
KRLS 110545Z 13007KT 28/14 A3002 RMK A01 T02800136  RH  043%=      5-min Rain = 0
KRLS 110550Z 13007KT 28/14 A3002 RMK A01 T02790136  RH  043%=      5-min Rain = 0
KRLS 110555Z 13007KT 28/14 A3002 RMK A01 T02780137  RH  044%=      5-min Rain = 0
KRLS 110600Z 13007KT 28/14 A3002 RMK A01 T02780137  RH  044%=      5-min Rain = 0
KRLS 110605Z 13007KT 28/14 A3002 RMK A01 T02770136  RH  044%=      5-min Rain = 0
KRLS 110610Z 13007KT 28/14 A3002 RMK A01 T02770136  RH  044%=      5-min Rain = 0
KRLS 110615Z 13006KT 28/14 A3002 RMK A01 T02750136  RH  044%=      5-min Rain = 0
KRLS 110620Z 13007KT 27/14 A3002 RMK A01 T02730136  RH  045%=      5-min Rain = 0
KRLS 110625Z 13007KT 27/14 A3002 RMK A01 T02720137  RH  045%=      5-min Rain = 0
KRLS 110630Z 13006KT 27/14 A3002 RMK A01 T02710137  RH  045%=      5-min Rain = 0
KRLS 110635Z 13006KT 27/14 A3002 RMK A01 T02690137  RH  046%=      5-min Rain = 0
KRLS 110640Z 14007KT 27/14 A3002 RMK A01 T02670137  RH  046%=      5-min Rain = 0
KRLS 110645Z 14007KT 27/14 A3002 RMK A01 T02660137  RH  047%=      5-min Rain = 0
KRLS 110650Z 13007KT 27/14 A3002 RMK A01 T02660136  RH  047%=      5-min Rain = 0
KRLS 110655Z 14007KT 27/14 A3002 RMK A01 T02650136  RH  047%=      5-min Rain = 0
KRLS 110700Z 14007KT 26/14 A3001 RMK A01 T02640136  RH  047%=      5-min Rain = 0
KRLS 110705Z 14007KT 26/14 A3002 RMK A01 T02630136  RH  047%=      5-min Rain = 0
KRLS 110710Z 14007KT 26/14 A3001 RMK A01 T02630136  RH  047%=      5-min Rain = 0
KRLS 110715Z 14006KT 26/14 A3001 RMK A01 T02620136  RH  048%=      5-min Rain = 0
KRLS 110720Z 14006KT 26/14 A3001 RMK A01 T02600136  RH  048%=      5-min Rain = 0
KRLS 110725Z 14007KT 26/14 A3001 RMK A01 T02590135  RH  048%=      5-min Rain = 0
KRLS 110730Z 14007KT 26/14 A3001 RMK A01 T02580135  RH  048%=      5-min Rain = 0
KRLS 110735Z 14007KT 26/14 A3001 RMK A01 T02560135  RH  049%=      5-min Rain = 0
KRLS 110740Z 14007KT 26/14 A3001 RMK A01 T02550135  RH  049%=      5-min Rain = 0
KRLS 110745Z 14006KT 25/14 A3002 RMK A01 T02540135  RH  050%=      5-min Rain = 0
KRLS 110750Z 14007KT 25/14 A3001 RMK A01 T02540135  RH  050%=      5-min Rain = 0
KRLS 110755Z 15007KT 25/14 A3001 RMK A01 T02530135  RH  050%=      5-min Rain = 0
KRLS 110800Z 15007KT 25/14 A3001 RMK A01 T02520135  RH  050%=      5-min Rain = 0
KRLS 110805Z 15007KT 25/14 A3001 RMK A01 T02500136  RH  051%=      5-min Rain = 0
KRLS 110810Z 15007KT 25/14 A3002 RMK A01 T02490136  RH  051%=      5-min Rain = 0
KRLS 110815Z 16006KT 25/14 A3002 RMK A01 T02480136  RH  052%=      5-min Rain = 0
KRLS 110820Z 16006KT 25/14 A3002 RMK A01 T02450136  RH  053%=      5-min Rain = 0
KRLS 110825Z 16006KT 25/14 A3002 RMK A01 T02450136  RH  053%=      5-min Rain = 0
KRLS 110830Z 16006KT 24/14 A3002 RMK A01 T02440136  RH  053%=      5-min Rain = 0
KRLS 110835Z 16006KT 24/14 A3002 RMK A01 T02430137  RH  054%=      5-min Rain = 0
KRLS 110840Z 16006KT 24/14 A3002 RMK A01 T02420137  RH  054%=      5-min Rain = 0
KRLS 110845Z 15007KT 24/14 A3002 RMK A01 T02430137  RH  054%=      5-min Rain = 0
KRLS 110850Z 15007KT 24/14 A3002 RMK A01 T02430137  RH  053%=      5-min Rain = 0
KRLS 110855Z 16006KT 25/14 A3002 RMK A01 T02450136  RH  053%=      5-min Rain = 0
KRLS 110900Z 16006KT 24/14 A3002 RMK A01 T02430137  RH  054%=      5-min Rain = 0
KRLS 110905Z 15006KT 24/14 A3002 RMK A01 T02420137  RH  054%=      5-min Rain = 0
KRLS 110910Z 15006KT 24/14 A3002 RMK A01 T02430137  RH  054%=      5-min Rain = 0
KRLS 110915Z 15006KT 24/14 A3002 RMK A01 T02410137  RH  054%=      5-min Rain = 0
KRLS 110920Z 15006KT 24/14 A3002 RMK A01 T02420137  RH  054%=      5-min Rain = 0
KRLS 110925Z 16007KT 24/14 A3002 RMK A01 T02420137  RH  054%=      5-min Rain = 0
KRLS 110930Z 16006KT 24/14 A3002 RMK A01 T02400137  RH  055%=      5-min Rain = 0
KRLS 110935Z 17006KT 24/14 A3002 RMK A01 T02350137  RH  057%=      5-min Rain = 0
KRLS 110940Z 17006KT 23/14 A3002 RMK A01 T02320137  RH  057%=      5-min Rain = 0
KRLS 110945Z 17006KT 23/14 A3002 RMK A01 T02290137  RH  058%=      5-min Rain = 0
KRLS 110950Z 17007KT 23/14 A3002 RMK A01 T02320138  RH  058%=      5-min Rain = 0
KRLS 110955Z 17007KT 24/14 A3002 RMK A01 T02350138  RH  057%=      5-min Rain = 0
KRLS 111000Z 17007KT 23/14 A3002 RMK A01 T02340138  RH  057%=      5-min Rain = 0
KRLS 111005Z 17007KT 23/14 A3002 RMK A01 T02330139  RH  058%=      5-min Rain = 0
KRLS 111010Z 17007KT 23/14 A3002 RMK A01 T02340139  RH  058%=      5-min Rain = 0
KRLS 111015Z 17007KT 23/14 A3002 RMK A01 T02330139  RH  058%=      5-min Rain = 0
KRLS 111020Z 17007KT 23/14 A3002 RMK A01 T02330139  RH  058%=      5-min Rain = 0
KRLS 111025Z 17007KT 23/14 A3002 RMK A01 T02320139  RH  058%=      5-min Rain = 0
KRLS 111030Z 17007KT 23/14 A3002 RMK A01 T02300138  RH  059%=      5-min Rain = 0
KRLS 111035Z 18006KT 23/14 A3002 RMK A01 T02280138  RH  059%=      5-min Rain = 0
KRLS 111040Z 18006KT 23/14 A3002 RMK A01 T02280138  RH  059%=      5-min Rain = 0
KRLS 111045Z 19006KT 23/14 A3002 RMK A01 T02300137  RH  058%=      5-min Rain = 0
KRLS 111050Z 19005KT 23/14 A3003 RMK A01 T02290136  RH  058%=      5-min Rain = 0
KRLS 111055Z 19006KT 23/14 A3003 RMK A01 T02290135  RH  057%=      5-min Rain = 0
KRLS 111100Z 18007KT 23/14 A3003 RMK A01 T02300135  RH  057%=      5-min Rain = 0
KRLS 111105Z 19006KT 23/14 A3003 RMK A01 T02290136  RH  058%=      5-min Rain = 0
KRLS 111110Z 19006KT 23/14 A3003 RMK A01 T02290135  RH  058%=      5-min Rain = 0
KRLS 111115Z 20006KT 23/13 A3003 RMK A01 T02270134  RH  058%=      5-min Rain = 0
KRLS 111120Z 20005KT 22/13 A3003 RMK A01 T02240134  RH  059%=      5-min Rain = 0
KRLS 111125Z 20005KT 22/13 A3003 RMK A01 T02220134  RH  060%=      5-min Rain = 0
KRLS 111130Z 20005KT 22/13 A3003 RMK A01 T02210134  RH  060%=      5-min Rain = 0
KRLS 111135Z 21004KT 22/13 A3003 RMK A01 T02190133  RH  060%=      5-min Rain = 0
KRLS 111140Z 20003KT 22/13 A3004 RMK A01 T02200134  RH  060%=      5-min Rain = 0
KRLS 111145Z 19003KT 22/14 A3004 RMK A01 T02190135  RH  061%=      5-min Rain = 0
KRLS 111150Z 19003KT 22/14 A3004 RMK A01 T02160135  RH  063%=      5-min Rain = 0
KRLS 111155Z 19004KT 22/14 A3004 RMK A01 T02150136  RH  063%=      5-min Rain = 0
KRLS 111200Z 19004KT 22/14 A3004 RMK A01 T02170136  RH  062%=      5-min Rain = 0
KRLS 111205Z 21004KT 22/14 A3004 RMK A01 T02150135  RH  063%=      5-min Rain = 0
KRLS 111210Z 21004KT 21/13 A3005 RMK A01 T02140134  RH  062%=      5-min Rain = 0
KRLS 111215Z 20004KT 22/13 A3005 RMK A01 T02150134  RH  063%=      5-min Rain = 0
KRLS 111220Z 18004KT 22/14 A3005 RMK A01 T02170137  RH  063%=      5-min Rain = 0
KRLS 111225Z 18006KT 22/14 A3005 RMK A01 T02200138  RH  062%=      5-min Rain = 0
KRLS 111230Z 19004KT 22/14 A3006 RMK A01 T02210138  RH  062%=      5-min Rain = 0
KRLS 111235Z 20003KT 22/14 A3006 RMK A01 T02240137  RH  060%=      5-min Rain = 0
KRLS 111240Z 18003KT 23/14 A3006 RMK A01 T02260137  RH  059%=      5-min Rain = 0
KRLS 111245Z 19004KT 23/14 A3006 RMK A01 T02290138  RH  059%=      5-min Rain = 0
KRLS 111250Z 19005KT 23/14 A3006 RMK A01 T02300140  RH  059%=      5-min Rain = 0
KRLS 111255Z 18005KT 23/14 A3006 RMK A01 T02320142  RH  059%=      5-min Rain = 0
KRLS 111300Z 17006KT 24/14 A3006 RMK A01 T02350143  RH  058%=      5-min Rain = 0
KRLS 111305Z 18005KT 24/14 A3006 RMK A01 T02400143  RH  057%=      5-min Rain = 0
KRLS 111310Z 18006KT 25/14 A3006 RMK A01 T02460143  RH  055%=      5-min Rain = 0
KRLS 111315Z 18005KT 25/14 A3007 RMK A01 T02510144  RH  054%=      5-min Rain = 0
KRLS 111320Z 19005KT 26/15 A3007 RMK A01 T02560145  RH  053%=      5-min Rain = 0
KRLS 111325Z 19006KT 26/14 A3007 RMK A01 T02600144  RH  051%=      5-min Rain = 0
KRLS 111330Z 18007KT 26/15 A3007 RMK A01 T02620145  RH  051%=      5-min Rain = 0
KRLS 111335Z 18008KT 26/14 A3007 RMK A01 T02640144  RH  050%=      5-min Rain = 0
KRLS 111340Z 19007KT 27/14 A3008 RMK A01 T02680144  RH  049%=      5-min Rain = 0
KRLS 111345Z 18009KT 27/14 A3008 RMK A01 T02710144  RH  048%=      5-min Rain = 0
KRLS 111350Z 18009KT 27/14 A3008 RMK A01 T02710143  RH  047%=      5-min Rain = 0
KRLS 111355Z 18009KT 27/14 A3008 RMK A01 T02730143  RH  047%=      5-min Rain = 0
KRLS 111400Z 18009KT 28/14 A3008 RMK A01 T02750143  RH  046%=      5-min Rain = 0
KRLS 111405Z 19009KT 28/14 A3008 RMK A01 T02780144  RH  046%=      5-min Rain = 0
KRLS 111410Z 18010KT 28/14 A3008 RMK A01 T02810143  RH  045%=      5-min Rain = 0
KRLS 111415Z 18010KT 28/14 A3008 RMK A01 T02800142  RH  045%=      5-min Rain = 0
KRLS 111420Z 18010KT 28/14 A3008 RMK A01 T02810142  RH  044%=      5-min Rain = 0
KRLS 111425Z 18009KT 28/14 A3008 RMK A01 T02840143  RH  044%=      5-min Rain = 0
KRLS 111430Z 19010KT 29/14 A3008 RMK A01 T02870143  RH  043%=      5-min Rain = 0
KRLS 111435Z 18010KT 29/14 A3008 RMK A01 T02890144  RH  043%=      5-min Rain = 0
KRLS 111440Z 19012KT 29/14 A3008 RMK A01 T02900143  RH  042%=      5-min Rain = 0
KRLS 111445Z 19012KT 29/14 A3008 RMK A01 T02920144  RH  042%=      5-min Rain = 0
KRLS 111450Z 19011G16KT 29/14 A3008 RMK A01 T02940144  RH  042%=      5-min Rain = 0
KRLS 111455Z 19014KT 30/14 A3008 RMK A01 T02960143  RH  041%=      5-min Rain = 0
KRLS 111500Z 19014KT 30/14 A3008 RMK A01 T02980144  RH  041%=      5-min Rain = 0
KRLS 111505Z 19014KT 30/14 A3008 RMK A01 T03000144  RH  040%=      5-min Rain = 0
KRLS 111510Z 20014KT 30/14 A3008 RMK A01 T03020143  RH  040%=      5-min Rain = 0
KRLS 111515Z 20014G20KT 31/15 A3008 RMK A01 T03070145  RH  039%=      5-min Rain = 0
KRLS 111520Z 20015KT 31/14 A3007 RMK A01 T03070144  RH  039%=      5-min Rain = 0
KRLS 111525Z 20016KT 31/14 A3008 RMK A01 T03060144  RH  039%=      5-min Rain = 0
KRLS 111530Z 20015KT 31/15 A3008 RMK A01 T03080146  RH  039%=      5-min Rain = 0
KRLS 111535Z 19013KT 31/15 A3008 RMK A01 T03060146  RH  040%=      5-min Rain = 0
KRLS 111540Z 20013G18KT 31/15 A3008 RMK A01 T03090146  RH  039%=      5-min Rain = 0
KRLS 111545Z 21012G17KT 31/15 A3008 RMK A01 T03120148  RH  039%=      5-min Rain = 0
KRLS 111550Z 21011KT 31/15 A3008 RMK A01 T03120147  RH  039%=      5-min Rain = 0
KRLS 111555Z 20013KT 31/15 A3008 RMK A01 T03130148  RH  038%=      5-min Rain = 0
KRLS 111600Z 19011KT 32/15 A3008 RMK A01 T03170150  RH  038%=      5-min Rain = 0
KRLS 111605Z 19012KT 32/15 A3008 RMK A01 T03170148  RH  038%=      5-min Rain = 0
KRLS 111610Z 20011G17KT 32/15 A3008 RMK A01 T03210151  RH  038%=      5-min Rain = 0
KRLS 111615Z 20011KT 32/15 A3008 RMK A01 T03230150  RH  037%=      5-min Rain = 0
KRLS 111620Z 20011KT 32/15 A3008 RMK A01 T03210149  RH  037%=      5-min Rain = 0
KRLS 111625Z 20011KT 32/15 A3008 RMK A01 T03230149  RH  037%=      5-min Rain = 0
KRLS 111630Z 20010KT 33/15 A3008 RMK A01 T03270149  RH  036%=      5-min Rain = 0
KRLS 111635Z 20010KT 33/15 A3008 RMK A01 T03280149  RH  036%=      5-min Rain = 0
KRLS 111640Z 18009G14KT 33/15 A3008 RMK A01 T03340151  RH  035%=      5-min Rain = 0
KRLS 111645Z 20009KT 33/15 A3008 RMK A01 T03310147  RH  034%=      5-min Rain = 0
KRLS 111650Z 20008KT 33/15 A3008 RMK A01 T03310149  RH  035%=      5-min Rain = 0
KRLS 111655Z 20010KT 34/15 A3007 RMK A01 T03380150  RH  034%=      5-min Rain = 0
KRLS 111700Z 18010KT 34/15 A3007 RMK A01 T03400150  RH  034%=      5-min Rain = 0
KRLS 111705Z 19008G13KT 34/15 A3007 RMK A01 T03390147  RH  033%=      5-min Rain = 0
KRLS 111710Z 18008KT 34/15 A3007 RMK A01 T03380150  RH  034%=      5-min Rain = 0
KRLS 111715Z 19008KT 34/15 A3007 RMK A01 T03400148  RH  033%=      5-min Rain = 0
KRLS 111720Z 18007KT 34/15 A3007 RMK A01 T03440152  RH  033%=      5-min Rain = 0
KRLS 111725Z 20009KT 35/15 A3007 RMK A01 T03470148  RH  032%=      5-min Rain = 0
KRLS 111730Z 17008KT 35/15 A3007 RMK A01 T03480150  RH  032%=      5-min Rain = 0
KRLS 111735Z 18010KT 35/15 A3007 RMK A01 T03510150  RH  031%=      5-min Rain = 0
KRLS 111740Z 20010G15KT 35/15 A3006 RMK A01 T03540146  RH  030%=      5-min Rain = 0
KRLS 111745Z 19009G15KT 36/15 A3006 RMK A01 T03550149  RH  031%=      5-min Rain = 0
KRLS 111750Z 20009G15KT 35/14 A3006 RMK A01 T03530144  RH  030%=      5-min Rain = 0
KRLS 111755Z 18008G13KT 35/15 A3006 RMK A01 T03540148  RH  030%=      5-min Rain = 0
KRLS 111800Z 19010G15KT 36/15 A3006 RMK A01 T03620148  RH  029%=      5-min Rain = 0
KRLS 111805Z 19011G16KT 37/15 A3006 RMK A01 T03650147  RH  029%=      5-min Rain = 0
KRLS 111810Z 18009G15KT 36/15 A3005 RMK A01 T03580146  RH  029%=      5-min Rain = 0
KRLS 111815Z 18010G15KT 36/14 A3005 RMK A01 T03620139  RH  028%=      5-min Rain = 0
KRLS 111820Z 19009G15KT 36/15 A3005 RMK A01 T03630145  RH  029%=      5-min Rain = 0
KRLS 111825Z 17011G17KT 37/14 A3005 RMK A01 T03650144  RH  028%=      5-min Rain = 0
KRLS 111830Z 18011G16KT 36/14 A3005 RMK A01 T03630139  RH  027%=      5-min Rain = 0
KRLS 111835Z 19011KT 36/14 A3004 RMK A01 T03580141  RH  029%=      5-min Rain = 0
KRLS 111840Z 17012G19KT 36/14 A3004 RMK A01 T03560141  RH  029%=      5-min Rain = 0
KRLS 111845Z 17010KT 36/14 A3004 RMK A01 T03570141  RH  029%=      5-min Rain = 0
KRLS 111850Z 16012G17KT 37/14 A3003 RMK A01 T03660141  RH  027%=      5-min Rain = 0
KRLS 111855Z 19011KT 36/13 A3003 RMK A01 T03640132  RH  026%=      5-min Rain = 0
KRLS 111900Z 16012G18KT 36/14 A3003 RMK A01 T03640138  RH  027%=      5-min Rain = 0
KRLS 111905Z 17009G16KT 37/14 A3003 RMK A01 T03650136  RH  026%=      5-min Rain = 0
KRLS 111910Z 19011G18KT 37/13 A3003 RMK A01 T03650133  RH  026%=      5-min Rain = 0
KRLS 111915Z 15010KT 37/14 A3003 RMK A01 T03670137  RH  026%=      5-min Rain = 0
KRLS 111920Z 14010G16KT 36/14 A3003 RMK A01 T03620135  RH  027%=      5-min Rain = 0
KRLS 111925Z 14010G15KT 36/13 A3002 RMK A01 T03630133  RH  026%=      5-min Rain = 0
KRLS 111930Z 13012G17KT 37/13 A3002 RMK A01 T03680131  RH  025%=      5-min Rain = 0
KRLS 111935Z 15010KT 37/14 A3002 RMK A01 T03710137  RH  026%=      5-min Rain = 0
KRLS 111940Z 16011KT 38/13 A3002 RMK A01 T03750134  RH  025%=      5-min Rain = 0
KRLS 111945Z 17009G15KT 37/13 A3002 RMK A01 T03700126  RH  024%=      5-min Rain = 0
KRLS 111950Z 17009G14KT 37/13 A3001 RMK A01 T03700126  RH  024%=      5-min Rain = 0
KRLS 111955Z 15009G17KT 37/13 A3001 RMK A01 T03690126  RH  024%=      5-min Rain = 0
KRLS 112000Z 16011G17KT 37/13 A3001 RMK A01 T03740130  RH  024%=      5-min Rain = 0
KRLS 112005Z 20010KT 37/13 A3001 RMK A01 T03710125  RH  024%=      5-min Rain = 0
KRLS 112010Z 17009KT 37/12 A3001 RMK A01 T03720123  RH  023%=      5-min Rain = 0
KRLS 112015Z 15011G16KT 37/13 A30 RMK A01 T03730128  RH  024%=      5-min Rain = 0
KRLS 112020Z 16010G16KT 37/12 A30 RMK A01 T03710124  RH  024%=      5-min Rain = 0
KRLS 112025Z 15008G14KT 37/13 A30 RMK A01 T03690126  RH  024%=      5-min Rain = 0
KRLS 112030Z 16007KT 37/13 A30 RMK A01 T03700125  RH  024%=      5-min Rain = 0
KRLS 112035Z 19007G15KT 37/12 A2999 RMK A01 T03700122  RH  024%=      5-min Rain = 0
KRLS 112040Z 20008KT 37/12 A2999 RMK A01 T03730120  RH  023%=      5-min Rain = 0
KRLS 112045Z 18009G14KT 37/12 A2999 RMK A01 T03720119  RH  023%=      5-min Rain = 0
KRLS 112050Z 15012G17KT 37/12 A2999 RMK A01 T03690120  RH  023%=      5-min Rain = 0
KRLS 112055Z 15009G14KT 37/12 A2999 RMK A01 T03670117  RH  023%=      5-min Rain = 0
KRLS 112100Z 18009KT 38/12 A2998 RMK A01 T03750117  RH  022%=      5-min Rain = 0
KRLS 112105Z 18010KT 37/12 A2998 RMK A01 T03710117  RH  023%=      5-min Rain = 0
KRLS 112110Z 15009G14KT 37/12 A2998 RMK A01 T03740116  RH  022%=      5-min Rain = 0
KRLS 112115Z 15010G18KT 37/12 A2997 RMK A01 T03740118  RH  022%=      5-min Rain = 0
KRLS 112120Z 17007G12KT 38/12 A2998 RMK A01 T03760117  RH  022%=      5-min Rain = 0
KRLS 112125Z 16009G14KT 38/12 A2997 RMK A01 T03750117  RH  022%=      5-min Rain = 0
KRLS 112130Z 15012KT 38/12 A2997 RMK A01 T03760115  RH  022%=      5-min Rain = 0
KRLS 112135Z 16011G16KT 37/12 A2997 RMK A01 T03730115  RH  022%=      5-min Rain = 0
KRLS 112140Z 18006G12KT 37/11 A2997 RMK A01 T03730114  RH  022%=      5-min Rain = 0
KRLS 112145Z 14011G16KT 38/11 A2997 RMK A01 T03770114  RH  021%=      5-min Rain = 0
KRLS 112150Z 15011G16KT 38/11 A2997 RMK A01 T03750110  RH  021%=      5-min Rain = 0
KRLS 112155Z 16007KT 38/11 A2997 RMK A01 T03770108  RH  020%=      5-min Rain = 0
KRLS 112200Z 16007KT 38/11 A2997 RMK A01 T03760105  RH  020%=      5-min Rain = 0
KRLS 112205Z 17008KT 38/10 A2997 RMK A01 T03780104  RH  020%=      5-min Rain = 0
KRLS 112210Z 16010G15KT 38/11 A2997 RMK A01 T03770105  RH  020%=      5-min Rain = 0
KRLS 112215Z 16011KT 38/10 A2996 RMK A01 T03780103  RH  020%=      5-min Rain = 0
KRLS 112220Z 17009KT 38/10 A2996 RMK A01 T03760101  RH  020%=      5-min Rain = 0
KRLS 112225Z 15009G14KT 38/10 A2996 RMK A01 T03750100  RH  020%=      5-min Rain = 0
KRLS 112230Z 16012G19KT 38/10 A2996 RMK A01 T03760102  RH  020%=      5-min Rain = 0
KRLS 112235Z 16008KT 38/10 A2996 RMK A01 T03750103  RH  020%=      5-min Rain = 0
KRLS 112240Z 16010G15KT 38/10 A2996 RMK A01 T03770104  RH  020%=      5-min Rain = 0
KRLS 112245Z 17010G15KT 38/10 A2995 RMK A01 T03760103  RH  020%=      5-min Rain = 0
KRLS 112250Z 16008G14KT 38/10 A2995 RMK A01 T03780103  RH  020%=      5-min Rain = 0
KRLS 112255Z 14010KT 38/10 A2995 RMK A01 T03760099  RH  019%=      5-min Rain = 0
KRLS 112300Z 16011G16KT 37/10 A2995 RMK A01 T03740103  RH  020%=      5-min Rain = 0
KRLS 112305Z 15012G18KT 37/10 A2995 RMK A01 T03730103  RH  020%=      5-min Rain = 0
KRLS 112310Z 16013G18KT 37/10 A2994 RMK A01 T03730102  RH  020%=      5-min Rain = 0
KRLS 112315Z 16011G16KT 37/10 A2994 RMK A01 T03720103  RH  020%=      5-min Rain = 0
KRLS 112320Z 15011KT 37/10 A2994 RMK A01 T03720098  RH  020%=      5-min Rain = 0
KRLS 112325Z 15011G16KT 37/10 A2994 RMK A01 T03720099  RH  020%=      5-min Rain = 0
KRLS 112330Z 16015G20KT 37/10 A2994 RMK A01 T03710100  RH  020%=      5-min Rain = 0
KRLS 112335Z 16014KT 37/10 A2994 RMK A01 T03690101  RH  020%=      5-min Rain = 0
KRLS 112340Z 14012KT 37/10 A2993 RMK A01 T03710101  RH  020%=      5-min Rain = 0
KRLS 112345Z 15012KT 37/10 A2993 RMK A01 T03700100  RH  020%=      5-min Rain = 0
KRLS 112350Z 16011KT 37/10 A2993 RMK A01 T03680100  RH  020%=      5-min Rain = 0
KRLS 112355Z 15013KT 37/10 A2993 RMK A01 T03680099  RH  020%=      5-min Rain = 0
KRLS 120000Z 15013G18KT 37/10 A2993 RMK A01 T03660101  RH  021%=      5-min Rain = 0
KRLS 120005Z 15012KT 37/10 A2993 RMK A01 T03650103  RH  021%=      5-min Rain = 0
KRLS 120010Z 15012KT 36/10 A2993 RMK A01 T03640103  RH  021%=      5-min Rain = 0
KRLS 120015Z 15012KT 36/10 A2993 RMK A01 T03630103  RH  021%=      5-min Rain = 0
KRLS 120020Z 15013G18KT 36/10 A2993 RMK A01 T03620103  RH  022%=      5-min Rain = 0
KRLS 120025Z 15013G18KT 36/10 A2993 RMK A01 T03600103  RH  022%=      5-min Rain = 0
KRLS 120030Z 15013KT 36/10 A2993 RMK A01 T03590100  RH  021%=      5-min Rain = 0
KRLS 120035Z 15013G18KT 36/10 A2994 RMK A01 T03580100  RH  022%=      5-min Rain = 0
KRLS 120040Z 15012KT 36/10 A2994 RMK A01 T03550099  RH  022%=      5-min Rain = 0
KRLS 120045Z 15012KT 35/10 A2994 RMK A01 T03540099  RH  022%=      5-min Rain = 0
KRLS 120050Z 16012KT 35/10 A2994 RMK A01 T03520100  RH  022%=      5-min Rain = 0
KRLS 120055Z 15011KT 35/10 A2994 RMK A01 T03500103  RH  023%=      5-min Rain = 0
KRLS 120100Z 15011KT 35/10 A2994 RMK A01 T03470104  RH  024%=      5-min Rain = 0
KRLS 120105Z 15011KT 35/10 A2995 RMK A01 T03460100  RH  023%=      5-min Rain = 0
KRLS 120110Z 15011KT 34/10 A2995 RMK A01 T03420100  RH  024%=      5-min Rain = 0
KRLS 120115Z 15011KT 34/10 A2995 RMK A01 T03400098  RH  024%=      5-min Rain = 0
KRLS 120120Z 15010KT 34/10 A2995 RMK A01 T03370099  RH  024%=      5-min Rain = 0
KRLS 120125Z 15009KT 33/10 A2995 RMK A01 T03340099  RH  025%=      5-min Rain = 0
KRLS 120130Z 15007KT 33/10 A2996 RMK A01 T03290100  RH  025%=      5-min Rain = 0
KRLS 120135Z 15007KT 33/10 A2996 RMK A01 T03250101  RH  026%=      5-min Rain = 0
KRLS 120140Z 15009KT 33/10 A2996 RMK A01 T03250101  RH  026%=      5-min Rain = 0
KRLS 120145Z 15010KT 33/10 A2997 RMK A01 T03270100  RH  026%=      5-min Rain = 0
KRLS 120150Z 15010KT 33/10 A2997 RMK A01 T03270098  RH  025%=      5-min Rain = 0
KRLS 120155Z 15009KT 32/10 A2997 RMK A01 T03240097  RH  026%=      5-min Rain = 0
KRLS 120200Z 15009KT 32/10 A2997 RMK A01 T03220096  RH  026%=      5-min Rain = 0
KRLS 120205Z 15008KT 32/10 A2998 RMK A01 T03190095  RH  026%=      5-min Rain = 0
KRLS 120210Z 15008KT 32/10 A2998 RMK A01 T03160095  RH  026%=      5-min Rain = 0
KRLS 120215Z 15007KT 31/10 A2998 RMK A01 T03120095  RH  027%=      5-min Rain = 0
KRLS 120220Z 15008KT 31/10 A2998 RMK A01 T03100095  RH  027%=      5-min Rain = 0
KRLS 120225Z 15008KT 31/09 A2998 RMK A01 T03080094  RH  027%=      5-min Rain = 0
KRLS 120230Z 15008KT 31/09 A2998 RMK A01 T03060092  RH  027%=      5-min Rain = 0
KRLS 120235Z 14007KT 31/09 A2999 RMK A01 T03060091  RH  027%=      5-min Rain = 0
KRLS 120240Z 15008KT 31/09 A2999 RMK A01 T03050089  RH  027%=      5-min Rain = 0
KRLS 120245Z 15008KT 30/09 A2999 RMK A01 T03030088  RH  027%=      5-min Rain = 0
KRLS 120250Z 15007KT 30/09 A2999 RMK A01 T03010087  RH  027%=      5-min Rain = 0
KRLS 120255Z 15006KT 30/09 A30 RMK A01 T02970086  RH  028%=      5-min Rain = 0
KRLS 120300Z 15006KT 30/09 A30 RMK A01 T02950086  RH  028%=      5-min Rain = 0
KRLS 120305Z 15006KT 29/09 A30 RMK A01 T02920085  RH  028%=      5-min Rain = 0
KRLS 120310Z 15006KT 29/09 A3001 RMK A01 T02910085  RH  028%=      5-min Rain = 0
KRLS 120315Z 15005KT 29/09 A3001 RMK A01 T02870086  RH  029%=      5-min Rain = 0
KRLS 120320Z 16005KT 28/09 A3001 RMK A01 T02830086  RH  030%=      5-min Rain = 0
KRLS 120325Z 16005KT 28/09 A3001 RMK A01 T02790087  RH  031%=      5-min Rain = 0
KRLS 120330Z 16005KT 28/09 A3002 RMK A01 T02770088  RH  031%=      5-min Rain = 0
KRLS 120335Z 17005KT 28/09 A3002 RMK A01 T02750088  RH  032%=      5-min Rain = 0
KRLS 120340Z 28006G11KT 27/09 A3002 RMK A01 T02720091  RH  033%=      5-min Rain = 0
KRLS 120345Z 30012G17KT 28/11 A3003 RMK A01 T02830105  RH  034%=      5-min Rain = 0
KRLS 120350Z 29009G16KT 29/10 A3003 RMK A01 T02940100  RH  031%=      5-min Rain = 0
KRLS 120355Z 28006KT 31/10 A3003 RMK A01 T03060097  RH  028%=      5-min Rain = 0
KRLS 120400Z 29009KT 29/12 A3003 RMK A01 T02940116  RH  035%=      5-min Rain = 0
KRLS 120405Z 31009G14KT 29/12 A3003 RMK A01 T02870123  RH  038%=      5-min Rain = 0
KRLS 120410Z 31009KT 29/12 A3004 RMK A01 T02850124  RH  038%=      5-min Rain = 0
KRLS 120415Z 32009KT 28/13 A3004 RMK A01 T02830125  RH  039%=      5-min Rain = 0
KRLS 120420Z 32009KT 28/13 A3004 RMK A01 T02790127  RH  041%=      5-min Rain = 0
KRLS 120425Z 33008KT 28/13 A3004 RMK A01 T02750128  RH  042%=      5-min Rain = 0
KRLS 120430Z 34006KT 27/13 A3004 RMK A01 T02720129  RH  043%=      5-min Rain = 0
KRLS 120435Z 34007KT 27/13 A3003 RMK A01 T02710130  RH  043%=      5-min Rain = 0
KRLS 120440Z 35008KT 27/13 A3003 RMK A01 T02700131  RH  044%=      5-min Rain = 0
KRLS 120445Z 35008KT 27/13 A3003 RMK A01 T02680132  RH  045%=      5-min Rain = 0
KRLS 120450Z 35006KT 27/13 A3003 RMK A01 T02660132  RH  045%=      5-min Rain = 0
KRLS 120455Z 01005KT 26/13 A3003 RMK A01 T02620133  RH  047%=      5-min Rain = 0

Page generated in 0.0258 seconds.